<?xml version="1.0" encoding="UTF-8" standalone="no" ?>
<gpx xmlns="http://www.topografix.com/GPX/1/1" xmlns:xsi="http://www.w3.org/2001/XMLSchema-instance" xsi:schemaLocation="http://www.topografix.com/GPX/1/1 http://www.topografix.com/GPX/1/1/gpx.xsd" version="1.1" creator="VisuGPX - https://www.visugpx.com">
  <metadata>
    <name>La Bergerie</name>
    <desc><![CDATA[Randonnée cool avec peu de dénivelé possibilité de cueillir du genièvre quand il sera mur.]]></desc>
  </metadata>
  <trk>
    <name><![CDATA[2017-10-31-01]]></name>
    <trkseg>
      <trkpt lat="47.30271" lon="4.981">
        <ele>371.3</ele>
        <time>2017-10-31T12:47:21Z</time>
      </trkpt>
      <trkpt lat="47.30271" lon="4.981">
        <ele>373.7</ele>
        <time>2017-10-31T12:47:22Z</time>
      </trkpt>
      <trkpt lat="47.30279" lon="4.98087">
        <ele>363.2</ele>
        <time>2017-10-31T12:47:32Z</time>
      </trkpt>
      <trkpt lat="47.30279" lon="4.98087">
        <ele>361.4</ele>
        <time>2017-10-31T12:47:35Z</time>
      </trkpt>
      <trkpt lat="47.3027" lon="4.98011">
        <ele>363.5</ele>
        <time>2017-10-31T13:10:35Z</time>
      </trkpt>
      <trkpt lat="47.30265" lon="4.97999">
        <ele>363.5</ele>
        <time>2017-10-31T13:10:42Z</time>
      </trkpt>
      <trkpt lat="47.30259" lon="4.97989">
        <ele>364</ele>
        <time>2017-10-31T13:10:53Z</time>
      </trkpt>
      <trkpt lat="47.30253" lon="4.97978">
        <ele>364.1</ele>
        <time>2017-10-31T13:11:00Z</time>
      </trkpt>
      <trkpt lat="47.30247" lon="4.97966">
        <ele>364.9</ele>
        <time>2017-10-31T13:11:08Z</time>
      </trkpt>
      <trkpt lat="47.30242" lon="4.97954">
        <ele>365.7</ele>
        <time>2017-10-31T13:11:19Z</time>
      </trkpt>
      <trkpt lat="47.30237" lon="4.97943">
        <ele>366.1</ele>
        <time>2017-10-31T13:11:26Z</time>
      </trkpt>
      <trkpt lat="47.30231" lon="4.97932">
        <ele>366.5</ele>
        <time>2017-10-31T13:11:35Z</time>
      </trkpt>
      <trkpt lat="47.30227" lon="4.9792">
        <ele>366.9</ele>
        <time>2017-10-31T13:11:44Z</time>
      </trkpt>
      <trkpt lat="47.30222" lon="4.97908">
        <ele>367.1</ele>
        <time>2017-10-31T13:11:53Z</time>
      </trkpt>
      <trkpt lat="47.30217" lon="4.97896">
        <ele>367.8</ele>
        <time>2017-10-31T13:12:00Z</time>
      </trkpt>
      <trkpt lat="47.30212" lon="4.97884">
        <ele>368</ele>
        <time>2017-10-31T13:12:08Z</time>
      </trkpt>
      <trkpt lat="47.30207" lon="4.97872">
        <ele>368.7</ele>
        <time>2017-10-31T13:12:18Z</time>
      </trkpt>
      <trkpt lat="47.30202" lon="4.97861">
        <ele>368.9</ele>
        <time>2017-10-31T13:12:26Z</time>
      </trkpt>
      <trkpt lat="47.30195" lon="4.9785">
        <ele>369.3</ele>
        <time>2017-10-31T13:12:36Z</time>
      </trkpt>
      <trkpt lat="47.3019" lon="4.97839">
        <ele>369.5</ele>
        <time>2017-10-31T13:12:45Z</time>
      </trkpt>
      <trkpt lat="47.30185" lon="4.97827">
        <ele>370</ele>
        <time>2017-10-31T13:12:54Z</time>
      </trkpt>
      <trkpt lat="47.30179" lon="4.97815">
        <ele>370.9</ele>
        <time>2017-10-31T13:13:05Z</time>
      </trkpt>
      <trkpt lat="47.30174" lon="4.97803">
        <ele>371.8</ele>
        <time>2017-10-31T13:13:14Z</time>
      </trkpt>
      <trkpt lat="47.30169" lon="4.97791">
        <ele>372.1</ele>
        <time>2017-10-31T13:13:22Z</time>
      </trkpt>
      <trkpt lat="47.30164" lon="4.97779">
        <ele>372.1</ele>
        <time>2017-10-31T13:13:31Z</time>
      </trkpt>
      <trkpt lat="47.30158" lon="4.97766">
        <ele>372.5</ele>
        <time>2017-10-31T13:13:43Z</time>
      </trkpt>
      <trkpt lat="47.30152" lon="4.97753">
        <ele>372.7</ele>
        <time>2017-10-31T13:13:52Z</time>
      </trkpt>
      <trkpt lat="47.30146" lon="4.97743">
        <ele>373</ele>
        <time>2017-10-31T13:14:00Z</time>
      </trkpt>
      <trkpt lat="47.3014" lon="4.9773">
        <ele>373.7</ele>
        <time>2017-10-31T13:14:10Z</time>
      </trkpt>
      <trkpt lat="47.30134" lon="4.97718">
        <ele>374.6</ele>
        <time>2017-10-31T13:14:20Z</time>
      </trkpt>
      <trkpt lat="47.30128" lon="4.97709">
        <ele>374.5</ele>
        <time>2017-10-31T13:14:29Z</time>
      </trkpt>
      <trkpt lat="47.30122" lon="4.97697">
        <ele>374.7</ele>
        <time>2017-10-31T13:14:38Z</time>
      </trkpt>
      <trkpt lat="47.30117" lon="4.97687">
        <ele>374.9</ele>
        <time>2017-10-31T13:14:45Z</time>
      </trkpt>
      <trkpt lat="47.30112" lon="4.97676">
        <ele>375.6</ele>
        <time>2017-10-31T13:14:52Z</time>
      </trkpt>
      <trkpt lat="47.30107" lon="4.97664">
        <ele>376.1</ele>
        <time>2017-10-31T13:15:01Z</time>
      </trkpt>
      <trkpt lat="47.30101" lon="4.97653">
        <ele>376.6</ele>
        <time>2017-10-31T13:15:10Z</time>
      </trkpt>
      <trkpt lat="47.30094" lon="4.97641">
        <ele>377</ele>
        <time>2017-10-31T13:15:19Z</time>
      </trkpt>
      <trkpt lat="47.30087" lon="4.9763">
        <ele>377.7</ele>
        <time>2017-10-31T13:15:27Z</time>
      </trkpt>
      <trkpt lat="47.30083" lon="4.97617">
        <ele>378.4</ele>
        <time>2017-10-31T13:15:35Z</time>
      </trkpt>
      <trkpt lat="47.30078" lon="4.97606">
        <ele>378.8</ele>
        <time>2017-10-31T13:15:44Z</time>
      </trkpt>
      <trkpt lat="47.30072" lon="4.97594">
        <ele>379.1</ele>
        <time>2017-10-31T13:15:52Z</time>
      </trkpt>
      <trkpt lat="47.30068" lon="4.97583">
        <ele>378.9</ele>
        <time>2017-10-31T13:16:02Z</time>
      </trkpt>
      <trkpt lat="47.30062" lon="4.97573">
        <ele>379</ele>
        <time>2017-10-31T13:16:11Z</time>
      </trkpt>
      <trkpt lat="47.30057" lon="4.97562">
        <ele>379.5</ele>
        <time>2017-10-31T13:16:19Z</time>
      </trkpt>
      <trkpt lat="47.3005" lon="4.97551">
        <ele>379.4</ele>
        <time>2017-10-31T13:16:29Z</time>
      </trkpt>
      <trkpt lat="47.30044" lon="4.9754">
        <ele>380</ele>
        <time>2017-10-31T13:16:38Z</time>
      </trkpt>
      <trkpt lat="47.30039" lon="4.97528">
        <ele>380.8</ele>
        <time>2017-10-31T13:16:47Z</time>
      </trkpt>
      <trkpt lat="47.30034" lon="4.97517">
        <ele>380.5</ele>
        <time>2017-10-31T13:16:56Z</time>
      </trkpt>
      <trkpt lat="47.30029" lon="4.97506">
        <ele>380.7</ele>
        <time>2017-10-31T13:17:05Z</time>
      </trkpt>
      <trkpt lat="47.30022" lon="4.97497">
        <ele>380.9</ele>
        <time>2017-10-31T13:17:13Z</time>
      </trkpt>
      <trkpt lat="47.30017" lon="4.97485">
        <ele>381.3</ele>
        <time>2017-10-31T13:17:22Z</time>
      </trkpt>
      <trkpt lat="47.30011" lon="4.97473">
        <ele>382</ele>
        <time>2017-10-31T13:17:30Z</time>
      </trkpt>
      <trkpt lat="47.30004" lon="4.97462">
        <ele>382.5</ele>
        <time>2017-10-31T13:17:38Z</time>
      </trkpt>
      <trkpt lat="47.29998" lon="4.97451">
        <ele>382.7</ele>
        <time>2017-10-31T13:17:47Z</time>
      </trkpt>
      <trkpt lat="47.29994" lon="4.97438">
        <ele>382.9</ele>
        <time>2017-10-31T13:17:56Z</time>
      </trkpt>
      <trkpt lat="47.29989" lon="4.97426">
        <ele>382.9</ele>
        <time>2017-10-31T13:18:05Z</time>
      </trkpt>
      <trkpt lat="47.29985" lon="4.97413">
        <ele>382.7</ele>
        <time>2017-10-31T13:18:13Z</time>
      </trkpt>
      <trkpt lat="47.2998" lon="4.97401">
        <ele>382.9</ele>
        <time>2017-10-31T13:18:21Z</time>
      </trkpt>
      <trkpt lat="47.29975" lon="4.97388">
        <ele>382.8</ele>
        <time>2017-10-31T13:18:31Z</time>
      </trkpt>
      <trkpt lat="47.29969" lon="4.97378">
        <ele>382.5</ele>
        <time>2017-10-31T13:18:39Z</time>
      </trkpt>
      <trkpt lat="47.29961" lon="4.9737">
        <ele>382.5</ele>
        <time>2017-10-31T13:18:46Z</time>
      </trkpt>
      <trkpt lat="47.29954" lon="4.97359">
        <ele>382.8</ele>
        <time>2017-10-31T13:18:54Z</time>
      </trkpt>
      <trkpt lat="47.29949" lon="4.97346">
        <ele>383</ele>
        <time>2017-10-31T13:19:03Z</time>
      </trkpt>
      <trkpt lat="47.29945" lon="4.97333">
        <ele>383.4</ele>
        <time>2017-10-31T13:19:13Z</time>
      </trkpt>
      <trkpt lat="47.2994" lon="4.97319">
        <ele>383.9</ele>
        <time>2017-10-31T13:19:23Z</time>
      </trkpt>
      <trkpt lat="47.29938" lon="4.97306">
        <ele>383.6</ele>
        <time>2017-10-31T13:19:32Z</time>
      </trkpt>
      <trkpt lat="47.29933" lon="4.97294">
        <ele>383.4</ele>
        <time>2017-10-31T13:19:40Z</time>
      </trkpt>
      <trkpt lat="47.29927" lon="4.9728">
        <ele>383.3</ele>
        <time>2017-10-31T13:19:49Z</time>
      </trkpt>
      <trkpt lat="47.29922" lon="4.97268">
        <ele>383.9</ele>
        <time>2017-10-31T13:19:56Z</time>
      </trkpt>
      <trkpt lat="47.29918" lon="4.97255">
        <ele>384.2</ele>
        <time>2017-10-31T13:20:06Z</time>
      </trkpt>
      <trkpt lat="47.29912" lon="4.97243">
        <ele>384</ele>
        <time>2017-10-31T13:20:16Z</time>
      </trkpt>
      <trkpt lat="47.29906" lon="4.97233">
        <ele>384.4</ele>
        <time>2017-10-31T13:20:26Z</time>
      </trkpt>
      <trkpt lat="47.29899" lon="4.97222">
        <ele>384.5</ele>
        <time>2017-10-31T13:20:35Z</time>
      </trkpt>
      <trkpt lat="47.29892" lon="4.97213">
        <ele>383.9</ele>
        <time>2017-10-31T13:20:44Z</time>
      </trkpt>
      <trkpt lat="47.29884" lon="4.97206">
        <ele>383.4</ele>
        <time>2017-10-31T13:20:53Z</time>
      </trkpt>
      <trkpt lat="47.29874" lon="4.97196">
        <ele>383.3</ele>
        <time>2017-10-31T13:21:03Z</time>
      </trkpt>
      <trkpt lat="47.29867" lon="4.97188">
        <ele>383.7</ele>
        <time>2017-10-31T13:21:13Z</time>
      </trkpt>
      <trkpt lat="47.2986" lon="4.97179">
        <ele>383.6</ele>
        <time>2017-10-31T13:21:20Z</time>
      </trkpt>
      <trkpt lat="47.29851" lon="4.97173">
        <ele>382.9</ele>
        <time>2017-10-31T13:21:28Z</time>
      </trkpt>
      <trkpt lat="47.29844" lon="4.97182">
        <ele>383</ele>
        <time>2017-10-31T13:21:50Z</time>
      </trkpt>
      <trkpt lat="47.29836" lon="4.97176">
        <ele>387.1</ele>
        <time>2017-10-31T13:26:29Z</time>
      </trkpt>
      <trkpt lat="47.29827" lon="4.97184">
        <ele>387</ele>
        <time>2017-10-31T13:26:45Z</time>
      </trkpt>
      <trkpt lat="47.29817" lon="4.97187">
        <ele>387.4</ele>
        <time>2017-10-31T13:26:53Z</time>
      </trkpt>
      <trkpt lat="47.2981" lon="4.97178">
        <ele>387.5</ele>
        <time>2017-10-31T13:27:03Z</time>
      </trkpt>
      <trkpt lat="47.29801" lon="4.97173">
        <ele>387.3</ele>
        <time>2017-10-31T13:27:10Z</time>
      </trkpt>
      <trkpt lat="47.29793" lon="4.97166">
        <ele>386.9</ele>
        <time>2017-10-31T13:27:19Z</time>
      </trkpt>
      <trkpt lat="47.29784" lon="4.97162">
        <ele>387</ele>
        <time>2017-10-31T13:27:26Z</time>
      </trkpt>
      <trkpt lat="47.29777" lon="4.97154">
        <ele>387.1</ele>
        <time>2017-10-31T13:27:33Z</time>
      </trkpt>
      <trkpt lat="47.2977" lon="4.97143">
        <ele>387.2</ele>
        <time>2017-10-31T13:27:42Z</time>
      </trkpt>
      <trkpt lat="47.29762" lon="4.97134">
        <ele>386.8</ele>
        <time>2017-10-31T13:27:51Z</time>
      </trkpt>
      <trkpt lat="47.29753" lon="4.97128">
        <ele>387.4</ele>
        <time>2017-10-31T13:28:00Z</time>
      </trkpt>
      <trkpt lat="47.29744" lon="4.97125">
        <ele>387.4</ele>
        <time>2017-10-31T13:28:08Z</time>
      </trkpt>
      <trkpt lat="47.29735" lon="4.97124">
        <ele>387.2</ele>
        <time>2017-10-31T13:28:32Z</time>
      </trkpt>
      <trkpt lat="47.29726" lon="4.97132">
        <ele>388.1</ele>
        <time>2017-10-31T13:28:42Z</time>
      </trkpt>
      <trkpt lat="47.29718" lon="4.97139">
        <ele>389.1</ele>
        <time>2017-10-31T13:28:53Z</time>
      </trkpt>
      <trkpt lat="47.29711" lon="4.97149">
        <ele>389.7</ele>
        <time>2017-10-31T13:29:30Z</time>
      </trkpt>
      <trkpt lat="47.29706" lon="4.9716">
        <ele>389.7</ele>
        <time>2017-10-31T13:29:38Z</time>
      </trkpt>
      <trkpt lat="47.29698" lon="4.9717">
        <ele>390.1</ele>
        <time>2017-10-31T13:29:47Z</time>
      </trkpt>
      <trkpt lat="47.2969" lon="4.97179">
        <ele>390.7</ele>
        <time>2017-10-31T13:29:54Z</time>
      </trkpt>
      <trkpt lat="47.29687" lon="4.97192">
        <ele>390.3</ele>
        <time>2017-10-31T13:30:05Z</time>
      </trkpt>
      <trkpt lat="47.29682" lon="4.97205">
        <ele>390.4</ele>
        <time>2017-10-31T13:30:13Z</time>
      </trkpt>
      <trkpt lat="47.29674" lon="4.97212">
        <ele>390.5</ele>
        <time>2017-10-31T13:30:19Z</time>
      </trkpt>
      <trkpt lat="47.29665" lon="4.97218">
        <ele>390.3</ele>
        <time>2017-10-31T13:30:27Z</time>
      </trkpt>
      <trkpt lat="47.29655" lon="4.97219">
        <ele>390.2</ele>
        <time>2017-10-31T13:30:33Z</time>
      </trkpt>
      <trkpt lat="47.29645" lon="4.97217">
        <ele>390.2</ele>
        <time>2017-10-31T13:30:40Z</time>
      </trkpt>
      <trkpt lat="47.29637" lon="4.9722">
        <ele>390.3</ele>
        <time>2017-10-31T13:30:48Z</time>
      </trkpt>
      <trkpt lat="47.29627" lon="4.9722">
        <ele>391.1</ele>
        <time>2017-10-31T13:30:55Z</time>
      </trkpt>
      <trkpt lat="47.29617" lon="4.9722">
        <ele>391</ele>
        <time>2017-10-31T13:31:04Z</time>
      </trkpt>
      <trkpt lat="47.29608" lon="4.97222">
        <ele>390.9</ele>
        <time>2017-10-31T13:31:11Z</time>
      </trkpt>
      <trkpt lat="47.29599" lon="4.97224">
        <ele>391</ele>
        <time>2017-10-31T13:31:18Z</time>
      </trkpt>
      <trkpt lat="47.2959" lon="4.97225">
        <ele>390.8</ele>
        <time>2017-10-31T13:31:31Z</time>
      </trkpt>
      <trkpt lat="47.29581" lon="4.97232">
        <ele>391.2</ele>
        <time>2017-10-31T13:31:40Z</time>
      </trkpt>
      <trkpt lat="47.29573" lon="4.97242">
        <ele>391.8</ele>
        <time>2017-10-31T13:31:50Z</time>
      </trkpt>
      <trkpt lat="47.29565" lon="4.97251">
        <ele>392.2</ele>
        <time>2017-10-31T13:31:59Z</time>
      </trkpt>
      <trkpt lat="47.29561" lon="4.97263">
        <ele>393</ele>
        <time>2017-10-31T13:32:05Z</time>
      </trkpt>
      <trkpt lat="47.29556" lon="4.97275">
        <ele>393.8</ele>
        <time>2017-10-31T13:32:13Z</time>
      </trkpt>
      <trkpt lat="47.2955" lon="4.97285">
        <ele>395</ele>
        <time>2017-10-31T13:32:22Z</time>
      </trkpt>
      <trkpt lat="47.29541" lon="4.97294">
        <ele>395.4</ele>
        <time>2017-10-31T13:32:30Z</time>
      </trkpt>
      <trkpt lat="47.29533" lon="4.97301">
        <ele>395.5</ele>
        <time>2017-10-31T13:32:37Z</time>
      </trkpt>
      <trkpt lat="47.29525" lon="4.97308">
        <ele>395.8</ele>
        <time>2017-10-31T13:32:45Z</time>
      </trkpt>
      <trkpt lat="47.29518" lon="4.9732">
        <ele>395.4</ele>
        <time>2017-10-31T13:32:53Z</time>
      </trkpt>
      <trkpt lat="47.29511" lon="4.97329">
        <ele>394.7</ele>
        <time>2017-10-31T13:33:01Z</time>
      </trkpt>
      <trkpt lat="47.29503" lon="4.97335">
        <ele>394.5</ele>
        <time>2017-10-31T13:33:09Z</time>
      </trkpt>
      <trkpt lat="47.295" lon="4.97348">
        <ele>394.2</ele>
        <time>2017-10-31T13:33:18Z</time>
      </trkpt>
      <trkpt lat="47.29492" lon="4.97353">
        <ele>393.8</ele>
        <time>2017-10-31T13:33:43Z</time>
      </trkpt>
      <trkpt lat="47.29482" lon="4.97355">
        <ele>393</ele>
        <time>2017-10-31T13:33:57Z</time>
      </trkpt>
      <trkpt lat="47.29473" lon="4.97359">
        <ele>392.3</ele>
        <time>2017-10-31T13:34:12Z</time>
      </trkpt>
      <trkpt lat="47.29465" lon="4.97365">
        <ele>392</ele>
        <time>2017-10-31T13:34:20Z</time>
      </trkpt>
      <trkpt lat="47.29461" lon="4.97378">
        <ele>391.6</ele>
        <time>2017-10-31T13:34:28Z</time>
      </trkpt>
      <trkpt lat="47.29456" lon="4.97389">
        <ele>391.9</ele>
        <time>2017-10-31T13:34:35Z</time>
      </trkpt>
      <trkpt lat="47.29447" lon="4.97394">
        <ele>392</ele>
        <time>2017-10-31T13:34:42Z</time>
      </trkpt>
      <trkpt lat="47.29438" lon="4.97397">
        <ele>392.3</ele>
        <time>2017-10-31T13:34:50Z</time>
      </trkpt>
      <trkpt lat="47.29428" lon="4.97401">
        <ele>392.3</ele>
        <time>2017-10-31T13:35:00Z</time>
      </trkpt>
      <trkpt lat="47.29418" lon="4.97401">
        <ele>392.4</ele>
        <time>2017-10-31T13:35:10Z</time>
      </trkpt>
      <trkpt lat="47.29409" lon="4.97398">
        <ele>392.6</ele>
        <time>2017-10-31T13:35:18Z</time>
      </trkpt>
      <trkpt lat="47.29402" lon="4.97406">
        <ele>392.7</ele>
        <time>2017-10-31T13:35:28Z</time>
      </trkpt>
      <trkpt lat="47.29397" lon="4.97418">
        <ele>392.7</ele>
        <time>2017-10-31T13:35:38Z</time>
      </trkpt>
      <trkpt lat="47.2939" lon="4.97428">
        <ele>392.5</ele>
        <time>2017-10-31T13:35:46Z</time>
      </trkpt>
      <trkpt lat="47.29381" lon="4.97438">
        <ele>392.6</ele>
        <time>2017-10-31T13:35:53Z</time>
      </trkpt>
      <trkpt lat="47.29374" lon="4.97449">
        <ele>392.7</ele>
        <time>2017-10-31T13:36:01Z</time>
      </trkpt>
      <trkpt lat="47.29369" lon="4.9746">
        <ele>392.9</ele>
        <time>2017-10-31T13:36:10Z</time>
      </trkpt>
      <trkpt lat="47.29364" lon="4.97472">
        <ele>392.8</ele>
        <time>2017-10-31T13:36:18Z</time>
      </trkpt>
      <trkpt lat="47.29359" lon="4.97484">
        <ele>392.5</ele>
        <time>2017-10-31T13:36:27Z</time>
      </trkpt>
      <trkpt lat="47.29355" lon="4.97497">
        <ele>392.1</ele>
        <time>2017-10-31T13:36:36Z</time>
      </trkpt>
      <trkpt lat="47.29353" lon="4.97511">
        <ele>391.4</ele>
        <time>2017-10-31T13:36:49Z</time>
      </trkpt>
      <trkpt lat="47.29348" lon="4.97524">
        <ele>391</ele>
        <time>2017-10-31T13:36:56Z</time>
      </trkpt>
      <trkpt lat="47.29343" lon="4.97536">
        <ele>389.2</ele>
        <time>2017-10-31T13:37:53Z</time>
      </trkpt>
      <trkpt lat="47.29344" lon="4.9755">
        <ele>387.4</ele>
        <time>2017-10-31T13:39:45Z</time>
      </trkpt>
      <trkpt lat="47.29344" lon="4.97565">
        <ele>387.2</ele>
        <time>2017-10-31T13:39:52Z</time>
      </trkpt>
      <trkpt lat="47.29342" lon="4.97578">
        <ele>387.4</ele>
        <time>2017-10-31T13:40:01Z</time>
      </trkpt>
      <trkpt lat="47.2934" lon="4.97591">
        <ele>387.2</ele>
        <time>2017-10-31T13:40:09Z</time>
      </trkpt>
      <trkpt lat="47.29342" lon="4.97606">
        <ele>387.2</ele>
        <time>2017-10-31T13:40:17Z</time>
      </trkpt>
      <trkpt lat="47.29342" lon="4.97619">
        <ele>386.8</ele>
        <time>2017-10-31T13:40:25Z</time>
      </trkpt>
      <trkpt lat="47.29343" lon="4.97634">
        <ele>386.1</ele>
        <time>2017-10-31T13:40:33Z</time>
      </trkpt>
      <trkpt lat="47.29351" lon="4.97642">
        <ele>386.8</ele>
        <time>2017-10-31T13:40:44Z</time>
      </trkpt>
      <trkpt lat="47.29354" lon="4.97655">
        <ele>387.3</ele>
        <time>2017-10-31T13:40:53Z</time>
      </trkpt>
      <trkpt lat="47.29354" lon="4.97668">
        <ele>387</ele>
        <time>2017-10-31T13:41:00Z</time>
      </trkpt>
      <trkpt lat="47.29355" lon="4.97682">
        <ele>386.6</ele>
        <time>2017-10-31T13:41:08Z</time>
      </trkpt>
      <trkpt lat="47.29357" lon="4.97695">
        <ele>385.8</ele>
        <time>2017-10-31T13:41:17Z</time>
      </trkpt>
      <trkpt lat="47.29361" lon="4.97708">
        <ele>385.2</ele>
        <time>2017-10-31T13:41:26Z</time>
      </trkpt>
      <trkpt lat="47.29365" lon="4.97722">
        <ele>385.4</ele>
        <time>2017-10-31T13:41:34Z</time>
      </trkpt>
      <trkpt lat="47.29368" lon="4.97735">
        <ele>385.2</ele>
        <time>2017-10-31T13:41:42Z</time>
      </trkpt>
      <trkpt lat="47.29371" lon="4.97749">
        <ele>384.3</ele>
        <time>2017-10-31T13:41:53Z</time>
      </trkpt>
      <trkpt lat="47.2937" lon="4.97764">
        <ele>384.4</ele>
        <time>2017-10-31T13:42:01Z</time>
      </trkpt>
      <trkpt lat="47.29365" lon="4.97775">
        <ele>384.8</ele>
        <time>2017-10-31T13:42:11Z</time>
      </trkpt>
      <trkpt lat="47.29359" lon="4.97787">
        <ele>384.9</ele>
        <time>2017-10-31T13:42:22Z</time>
      </trkpt>
      <trkpt lat="47.29351" lon="4.97795">
        <ele>384.9</ele>
        <time>2017-10-31T13:42:37Z</time>
      </trkpt>
      <trkpt lat="47.29346" lon="4.97807">
        <ele>383.5</ele>
        <time>2017-10-31T13:42:54Z</time>
      </trkpt>
      <trkpt lat="47.29339" lon="4.97818">
        <ele>382.6</ele>
        <time>2017-10-31T13:43:14Z</time>
      </trkpt>
      <trkpt lat="47.2933" lon="4.97821">
        <ele>381.6</ele>
        <time>2017-10-31T13:43:22Z</time>
      </trkpt>
      <trkpt lat="47.29323" lon="4.9783">
        <ele>380.6</ele>
        <time>2017-10-31T13:43:29Z</time>
      </trkpt>
      <trkpt lat="47.29316" lon="4.97841">
        <ele>380.3</ele>
        <time>2017-10-31T13:43:41Z</time>
      </trkpt>
      <trkpt lat="47.29314" lon="4.97856">
        <ele>380.1</ele>
        <time>2017-10-31T13:43:51Z</time>
      </trkpt>
      <trkpt lat="47.29306" lon="4.97863">
        <ele>381.4</ele>
        <time>2017-10-31T13:44:47Z</time>
      </trkpt>
      <trkpt lat="47.29297" lon="4.97866">
        <ele>381.1</ele>
        <time>2017-10-31T13:44:53Z</time>
      </trkpt>
      <trkpt lat="47.29289" lon="4.97873">
        <ele>382.2</ele>
        <time>2017-10-31T13:45:38Z</time>
      </trkpt>
      <trkpt lat="47.29279" lon="4.97878">
        <ele>382.4</ele>
        <time>2017-10-31T13:45:43Z</time>
      </trkpt>
      <trkpt lat="47.2927" lon="4.97882">
        <ele>382.5</ele>
        <time>2017-10-31T13:45:48Z</time>
      </trkpt>
      <trkpt lat="47.29262" lon="4.97887">
        <ele>382.5</ele>
        <time>2017-10-31T13:45:54Z</time>
      </trkpt>
      <trkpt lat="47.29255" lon="4.97896">
        <ele>383.7</ele>
        <time>2017-10-31T13:46:08Z</time>
      </trkpt>
      <trkpt lat="47.29247" lon="4.97905">
        <ele>384.3</ele>
        <time>2017-10-31T13:46:16Z</time>
      </trkpt>
      <trkpt lat="47.2924" lon="4.97916">
        <ele>384.8</ele>
        <time>2017-10-31T13:46:22Z</time>
      </trkpt>
      <trkpt lat="47.29238" lon="4.9793">
        <ele>384.9</ele>
        <time>2017-10-31T13:46:35Z</time>
      </trkpt>
      <trkpt lat="47.29243" lon="4.97944">
        <ele>384.9</ele>
        <time>2017-10-31T13:46:41Z</time>
      </trkpt>
      <trkpt lat="47.2925" lon="4.97953">
        <ele>384.8</ele>
        <time>2017-10-31T13:46:47Z</time>
      </trkpt>
      <trkpt lat="47.29256" lon="4.97966">
        <ele>384.4</ele>
        <time>2017-10-31T13:46:56Z</time>
      </trkpt>
      <trkpt lat="47.29262" lon="4.97978">
        <ele>384.3</ele>
        <time>2017-10-31T13:47:06Z</time>
      </trkpt>
      <trkpt lat="47.29267" lon="4.97992">
        <ele>383.7</ele>
        <time>2017-10-31T13:47:14Z</time>
      </trkpt>
      <trkpt lat="47.29273" lon="4.98003">
        <ele>383.5</ele>
        <time>2017-10-31T13:47:21Z</time>
      </trkpt>
      <trkpt lat="47.29276" lon="4.98016">
        <ele>383.5</ele>
        <time>2017-10-31T13:47:27Z</time>
      </trkpt>
      <trkpt lat="47.29282" lon="4.98027">
        <ele>383.5</ele>
        <time>2017-10-31T13:47:33Z</time>
      </trkpt>
      <trkpt lat="47.29288" lon="4.98037">
        <ele>383.7</ele>
        <time>2017-10-31T13:47:42Z</time>
      </trkpt>
      <trkpt lat="47.29293" lon="4.98049">
        <ele>383.8</ele>
        <time>2017-10-31T13:47:50Z</time>
      </trkpt>
      <trkpt lat="47.29295" lon="4.98063">
        <ele>383.4</ele>
        <time>2017-10-31T13:47:56Z</time>
      </trkpt>
      <trkpt lat="47.29299" lon="4.98075">
        <ele>382.5</ele>
        <time>2017-10-31T13:48:03Z</time>
      </trkpt>
      <trkpt lat="47.29305" lon="4.98087">
        <ele>382.4</ele>
        <time>2017-10-31T13:48:13Z</time>
      </trkpt>
      <trkpt lat="47.29311" lon="4.98097">
        <ele>380.9</ele>
        <time>2017-10-31T13:51:06Z</time>
      </trkpt>
      <trkpt lat="47.29316" lon="4.98108">
        <ele>380.9</ele>
        <time>2017-10-31T13:51:13Z</time>
      </trkpt>
      <trkpt lat="47.29324" lon="4.98119">
        <ele>380.9</ele>
        <time>2017-10-31T13:51:23Z</time>
      </trkpt>
      <trkpt lat="47.29329" lon="4.98129">
        <ele>381</ele>
        <time>2017-10-31T13:51:30Z</time>
      </trkpt>
      <trkpt lat="47.29338" lon="4.98137">
        <ele>381.2</ele>
        <time>2017-10-31T13:51:39Z</time>
      </trkpt>
      <trkpt lat="47.29344" lon="4.98149">
        <ele>381.4</ele>
        <time>2017-10-31T13:51:50Z</time>
      </trkpt>
      <trkpt lat="47.29352" lon="4.98158">
        <ele>381.9</ele>
        <time>2017-10-31T13:51:57Z</time>
      </trkpt>
      <trkpt lat="47.2936" lon="4.98164">
        <ele>382.5</ele>
        <time>2017-10-31T13:52:08Z</time>
      </trkpt>
      <trkpt lat="47.29366" lon="4.98175">
        <ele>382.9</ele>
        <time>2017-10-31T13:52:18Z</time>
      </trkpt>
      <trkpt lat="47.29367" lon="4.98188">
        <ele>382.4</ele>
        <time>2017-10-31T13:52:29Z</time>
      </trkpt>
      <trkpt lat="47.29373" lon="4.982">
        <ele>382</ele>
        <time>2017-10-31T13:52:36Z</time>
      </trkpt>
      <trkpt lat="47.2938" lon="4.98208">
        <ele>381.8</ele>
        <time>2017-10-31T13:52:43Z</time>
      </trkpt>
      <trkpt lat="47.29386" lon="4.98218">
        <ele>382</ele>
        <time>2017-10-31T13:52:49Z</time>
      </trkpt>
      <trkpt lat="47.29395" lon="4.98225">
        <ele>382.3</ele>
        <time>2017-10-31T13:52:57Z</time>
      </trkpt>
      <trkpt lat="47.29401" lon="4.98236">
        <ele>383.1</ele>
        <time>2017-10-31T13:53:05Z</time>
      </trkpt>
      <trkpt lat="47.29408" lon="4.98245">
        <ele>383.8</ele>
        <time>2017-10-31T13:53:12Z</time>
      </trkpt>
      <trkpt lat="47.29413" lon="4.98256">
        <ele>383.9</ele>
        <time>2017-10-31T13:53:23Z</time>
      </trkpt>
      <trkpt lat="47.29417" lon="4.98269">
        <ele>383.7</ele>
        <time>2017-10-31T13:53:30Z</time>
      </trkpt>
      <trkpt lat="47.29421" lon="4.98281">
        <ele>383.3</ele>
        <time>2017-10-31T13:53:39Z</time>
      </trkpt>
      <trkpt lat="47.2943" lon="4.98285">
        <ele>383.5</ele>
        <time>2017-10-31T13:53:46Z</time>
      </trkpt>
      <trkpt lat="47.29439" lon="4.98289">
        <ele>384.2</ele>
        <time>2017-10-31T13:53:56Z</time>
      </trkpt>
      <trkpt lat="47.29448" lon="4.98296">
        <ele>385</ele>
        <time>2017-10-31T13:54:02Z</time>
      </trkpt>
      <trkpt lat="47.29456" lon="4.98303">
        <ele>386.2</ele>
        <time>2017-10-31T13:54:16Z</time>
      </trkpt>
      <trkpt lat="47.29464" lon="4.98313">
        <ele>385.9</ele>
        <time>2017-10-31T13:54:23Z</time>
      </trkpt>
      <trkpt lat="47.29472" lon="4.98321">
        <ele>386</ele>
        <time>2017-10-31T13:54:30Z</time>
      </trkpt>
      <trkpt lat="47.2948" lon="4.98328">
        <ele>386.4</ele>
        <time>2017-10-31T13:54:38Z</time>
      </trkpt>
      <trkpt lat="47.29489" lon="4.98332">
        <ele>386.4</ele>
        <time>2017-10-31T13:54:55Z</time>
      </trkpt>
      <trkpt lat="47.29497" lon="4.98337">
        <ele>387.6</ele>
        <time>2017-10-31T13:55:04Z</time>
      </trkpt>
      <trkpt lat="47.29506" lon="4.98341">
        <ele>388.7</ele>
        <time>2017-10-31T13:55:09Z</time>
      </trkpt>
      <trkpt lat="47.29514" lon="4.98346">
        <ele>389.3</ele>
        <time>2017-10-31T13:55:15Z</time>
      </trkpt>
      <trkpt lat="47.29523" lon="4.98352">
        <ele>390.1</ele>
        <time>2017-10-31T13:55:22Z</time>
      </trkpt>
      <trkpt lat="47.29532" lon="4.98356">
        <ele>390.7</ele>
        <time>2017-10-31T13:55:31Z</time>
      </trkpt>
      <trkpt lat="47.29541" lon="4.98361">
        <ele>391.5</ele>
        <time>2017-10-31T13:55:40Z</time>
      </trkpt>
      <trkpt lat="47.29547" lon="4.98371">
        <ele>391.8</ele>
        <time>2017-10-31T13:55:51Z</time>
      </trkpt>
      <trkpt lat="47.29548" lon="4.98385">
        <ele>390.8</ele>
        <time>2017-10-31T13:56:03Z</time>
      </trkpt>
      <trkpt lat="47.29549" lon="4.98399">
        <ele>390.8</ele>
        <time>2017-10-31T13:56:11Z</time>
      </trkpt>
      <trkpt lat="47.29554" lon="4.9841">
        <ele>391.2</ele>
        <time>2017-10-31T13:56:20Z</time>
      </trkpt>
      <trkpt lat="47.29563" lon="4.98414">
        <ele>392.9</ele>
        <time>2017-10-31T13:56:28Z</time>
      </trkpt>
      <trkpt lat="47.29572" lon="4.98418">
        <ele>394</ele>
        <time>2017-10-31T13:56:35Z</time>
      </trkpt>
      <trkpt lat="47.2958" lon="4.98424">
        <ele>395</ele>
        <time>2017-10-31T13:56:44Z</time>
      </trkpt>
      <trkpt lat="47.29589" lon="4.98432">
        <ele>396</ele>
        <time>2017-10-31T13:56:52Z</time>
      </trkpt>
      <trkpt lat="47.29597" lon="4.9844">
        <ele>397.2</ele>
        <time>2017-10-31T13:57:00Z</time>
      </trkpt>
      <trkpt lat="47.29606" lon="4.98446">
        <ele>397.6</ele>
        <time>2017-10-31T13:57:14Z</time>
      </trkpt>
      <trkpt lat="47.29601" lon="4.98459">
        <ele>391</ele>
        <time>2017-10-31T14:01:39Z</time>
      </trkpt>
      <trkpt lat="47.29592" lon="4.98467">
        <ele>390.6</ele>
        <time>2017-10-31T14:01:45Z</time>
      </trkpt>
      <trkpt lat="47.29584" lon="4.98475">
        <ele>390.4</ele>
        <time>2017-10-31T14:01:51Z</time>
      </trkpt>
      <trkpt lat="47.29577" lon="4.98483">
        <ele>390.2</ele>
        <time>2017-10-31T14:01:58Z</time>
      </trkpt>
      <trkpt lat="47.2957" lon="4.98491">
        <ele>390</ele>
        <time>2017-10-31T14:02:05Z</time>
      </trkpt>
      <trkpt lat="47.29562" lon="4.98497">
        <ele>389.5</ele>
        <time>2017-10-31T14:02:13Z</time>
      </trkpt>
      <trkpt lat="47.29552" lon="4.98502">
        <ele>389.5</ele>
        <time>2017-10-31T14:02:21Z</time>
      </trkpt>
      <trkpt lat="47.29544" lon="4.98507">
        <ele>389</ele>
        <time>2017-10-31T14:02:29Z</time>
      </trkpt>
      <trkpt lat="47.29535" lon="4.98512">
        <ele>388.4</ele>
        <time>2017-10-31T14:02:36Z</time>
      </trkpt>
      <trkpt lat="47.29526" lon="4.98516">
        <ele>388.2</ele>
        <time>2017-10-31T14:02:42Z</time>
      </trkpt>
      <trkpt lat="47.29518" lon="4.98522">
        <ele>388</ele>
        <time>2017-10-31T14:02:51Z</time>
      </trkpt>
      <trkpt lat="47.29508" lon="4.98527">
        <ele>387.8</ele>
        <time>2017-10-31T14:02:58Z</time>
      </trkpt>
      <trkpt lat="47.29499" lon="4.98532">
        <ele>387.6</ele>
        <time>2017-10-31T14:03:06Z</time>
      </trkpt>
      <trkpt lat="47.2949" lon="4.98535">
        <ele>387.3</ele>
        <time>2017-10-31T14:03:14Z</time>
      </trkpt>
      <trkpt lat="47.29481" lon="4.98541">
        <ele>387.3</ele>
        <time>2017-10-31T14:03:21Z</time>
      </trkpt>
      <trkpt lat="47.29472" lon="4.98545">
        <ele>387.3</ele>
        <time>2017-10-31T14:03:26Z</time>
      </trkpt>
      <trkpt lat="47.29464" lon="4.9855">
        <ele>387.2</ele>
        <time>2017-10-31T14:03:33Z</time>
      </trkpt>
      <trkpt lat="47.29455" lon="4.98554">
        <ele>387.3</ele>
        <time>2017-10-31T14:03:39Z</time>
      </trkpt>
      <trkpt lat="47.29447" lon="4.9856">
        <ele>387</ele>
        <time>2017-10-31T14:03:47Z</time>
      </trkpt>
      <trkpt lat="47.29437" lon="4.98563">
        <ele>386.8</ele>
        <time>2017-10-31T14:03:55Z</time>
      </trkpt>
      <trkpt lat="47.29428" lon="4.98567">
        <ele>386.5</ele>
        <time>2017-10-31T14:04:04Z</time>
      </trkpt>
      <trkpt lat="47.2942" lon="4.98572">
        <ele>385.7</ele>
        <time>2017-10-31T14:04:12Z</time>
      </trkpt>
      <trkpt lat="47.2941" lon="4.98577">
        <ele>384.9</ele>
        <time>2017-10-31T14:04:20Z</time>
      </trkpt>
      <trkpt lat="47.29401" lon="4.98583">
        <ele>384.9</ele>
        <time>2017-10-31T14:04:27Z</time>
      </trkpt>
      <trkpt lat="47.29392" lon="4.98589">
        <ele>385</ele>
        <time>2017-10-31T14:04:35Z</time>
      </trkpt>
      <trkpt lat="47.29383" lon="4.98593">
        <ele>385</ele>
        <time>2017-10-31T14:04:41Z</time>
      </trkpt>
      <trkpt lat="47.29374" lon="4.98596">
        <ele>385.1</ele>
        <time>2017-10-31T14:04:48Z</time>
      </trkpt>
      <trkpt lat="47.29365" lon="4.98601">
        <ele>384.7</ele>
        <time>2017-10-31T14:04:56Z</time>
      </trkpt>
      <trkpt lat="47.29356" lon="4.98606">
        <ele>384.6</ele>
        <time>2017-10-31T14:05:03Z</time>
      </trkpt>
      <trkpt lat="47.29347" lon="4.9861">
        <ele>384.7</ele>
        <time>2017-10-31T14:05:09Z</time>
      </trkpt>
      <trkpt lat="47.29338" lon="4.98615">
        <ele>384.7</ele>
        <time>2017-10-31T14:05:17Z</time>
      </trkpt>
      <trkpt lat="47.29329" lon="4.9862">
        <ele>383.9</ele>
        <time>2017-10-31T14:05:26Z</time>
      </trkpt>
      <trkpt lat="47.2932" lon="4.98623">
        <ele>383.6</ele>
        <time>2017-10-31T14:05:33Z</time>
      </trkpt>
      <trkpt lat="47.29312" lon="4.98629">
        <ele>383.5</ele>
        <time>2017-10-31T14:05:41Z</time>
      </trkpt>
      <trkpt lat="47.29302" lon="4.98633">
        <ele>383.1</ele>
        <time>2017-10-31T14:05:49Z</time>
      </trkpt>
      <trkpt lat="47.29294" lon="4.9864">
        <ele>382.6</ele>
        <time>2017-10-31T14:05:56Z</time>
      </trkpt>
      <trkpt lat="47.29284" lon="4.98646">
        <ele>382.1</ele>
        <time>2017-10-31T14:06:05Z</time>
      </trkpt>
      <trkpt lat="47.29274" lon="4.98651">
        <ele>382</ele>
        <time>2017-10-31T14:06:12Z</time>
      </trkpt>
      <trkpt lat="47.29265" lon="4.98657">
        <ele>381.8</ele>
        <time>2017-10-31T14:06:21Z</time>
      </trkpt>
      <trkpt lat="47.29256" lon="4.98666">
        <ele>381.4</ele>
        <time>2017-10-31T14:06:30Z</time>
      </trkpt>
      <trkpt lat="47.29248" lon="4.98672">
        <ele>381.3</ele>
        <time>2017-10-31T14:06:36Z</time>
      </trkpt>
      <trkpt lat="47.2924" lon="4.9868">
        <ele>374.8</ele>
        <time>2017-10-31T14:11:06Z</time>
      </trkpt>
      <trkpt lat="47.29234" lon="4.98691">
        <ele>374.5</ele>
        <time>2017-10-31T14:11:13Z</time>
      </trkpt>
      <trkpt lat="47.29227" lon="4.98701">
        <ele>374.8</ele>
        <time>2017-10-31T14:11:20Z</time>
      </trkpt>
      <trkpt lat="47.29221" lon="4.98711">
        <ele>374.9</ele>
        <time>2017-10-31T14:11:26Z</time>
      </trkpt>
      <trkpt lat="47.29215" lon="4.98721">
        <ele>374.8</ele>
        <time>2017-10-31T14:11:34Z</time>
      </trkpt>
      <trkpt lat="47.2921" lon="4.98734">
        <ele>375</ele>
        <time>2017-10-31T14:11:40Z</time>
      </trkpt>
      <trkpt lat="47.29206" lon="4.98747">
        <ele>375.2</ele>
        <time>2017-10-31T14:11:46Z</time>
      </trkpt>
      <trkpt lat="47.29202" lon="4.9876">
        <ele>375.5</ele>
        <time>2017-10-31T14:11:54Z</time>
      </trkpt>
      <trkpt lat="47.29198" lon="4.98773">
        <ele>375.3</ele>
        <time>2017-10-31T14:12:02Z</time>
      </trkpt>
      <trkpt lat="47.29198" lon="4.98786">
        <ele>375.3</ele>
        <time>2017-10-31T14:12:10Z</time>
      </trkpt>
      <trkpt lat="47.29202" lon="4.988">
        <ele>374.8</ele>
        <time>2017-10-31T14:12:18Z</time>
      </trkpt>
      <trkpt lat="47.29203" lon="4.98813">
        <ele>374.3</ele>
        <time>2017-10-31T14:12:24Z</time>
      </trkpt>
      <trkpt lat="47.29201" lon="4.98826">
        <ele>374.1</ele>
        <time>2017-10-31T14:12:32Z</time>
      </trkpt>
      <trkpt lat="47.29199" lon="4.98839">
        <ele>373.7</ele>
        <time>2017-10-31T14:12:38Z</time>
      </trkpt>
      <trkpt lat="47.29196" lon="4.98852">
        <ele>373.2</ele>
        <time>2017-10-31T14:12:44Z</time>
      </trkpt>
      <trkpt lat="47.29192" lon="4.98866">
        <ele>373.2</ele>
        <time>2017-10-31T14:12:50Z</time>
      </trkpt>
      <trkpt lat="47.29188" lon="4.98878">
        <ele>373</ele>
        <time>2017-10-31T14:13:00Z</time>
      </trkpt>
      <trkpt lat="47.29187" lon="4.98891">
        <ele>371.5</ele>
        <time>2017-10-31T14:13:09Z</time>
      </trkpt>
      <trkpt lat="47.29188" lon="4.98905">
        <ele>370.7</ele>
        <time>2017-10-31T14:13:17Z</time>
      </trkpt>
      <trkpt lat="47.29184" lon="4.9892">
        <ele>369.9</ele>
        <time>2017-10-31T14:13:25Z</time>
      </trkpt>
      <trkpt lat="47.29187" lon="4.98936">
        <ele>369.4</ele>
        <time>2017-10-31T14:13:31Z</time>
      </trkpt>
      <trkpt lat="47.29183" lon="4.98948">
        <ele>369.5</ele>
        <time>2017-10-31T14:13:36Z</time>
      </trkpt>
      <trkpt lat="47.29175" lon="4.98957">
        <ele>370</ele>
        <time>2017-10-31T14:13:44Z</time>
      </trkpt>
      <trkpt lat="47.2917" lon="4.98969">
        <ele>369.4</ele>
        <time>2017-10-31T14:13:51Z</time>
      </trkpt>
      <trkpt lat="47.29164" lon="4.98978">
        <ele>368.9</ele>
        <time>2017-10-31T14:13:58Z</time>
      </trkpt>
      <trkpt lat="47.29155" lon="4.9898">
        <ele>368.2</ele>
        <time>2017-10-31T14:14:07Z</time>
      </trkpt>
      <trkpt lat="47.29144" lon="4.98984">
        <ele>366.8</ele>
        <time>2017-10-31T14:14:16Z</time>
      </trkpt>
      <trkpt lat="47.29134" lon="4.98988">
        <ele>366.7</ele>
        <time>2017-10-31T14:14:21Z</time>
      </trkpt>
      <trkpt lat="47.29125" lon="4.98993">
        <ele>366.3</ele>
        <time>2017-10-31T14:14:28Z</time>
      </trkpt>
      <trkpt lat="47.29116" lon="4.98995">
        <ele>365.6</ele>
        <time>2017-10-31T14:14:36Z</time>
      </trkpt>
      <trkpt lat="47.29106" lon="4.98998">
        <ele>364.7</ele>
        <time>2017-10-31T14:14:47Z</time>
      </trkpt>
      <trkpt lat="47.29096" lon="4.99002">
        <ele>364</ele>
        <time>2017-10-31T14:14:55Z</time>
      </trkpt>
      <trkpt lat="47.29087" lon="4.99007">
        <ele>363.6</ele>
        <time>2017-10-31T14:15:02Z</time>
      </trkpt>
      <trkpt lat="47.29077" lon="4.99011">
        <ele>362.5</ele>
        <time>2017-10-31T14:15:11Z</time>
      </trkpt>
      <trkpt lat="47.29067" lon="4.99013">
        <ele>362</ele>
        <time>2017-10-31T14:15:18Z</time>
      </trkpt>
      <trkpt lat="47.29058" lon="4.99016">
        <ele>360.5</ele>
        <time>2017-10-31T14:15:28Z</time>
      </trkpt>
      <trkpt lat="47.29049" lon="4.99022">
        <ele>359.2</ele>
        <time>2017-10-31T14:15:39Z</time>
      </trkpt>
      <trkpt lat="47.29048" lon="4.99037">
        <ele>359.3</ele>
        <time>2017-10-31T14:15:46Z</time>
      </trkpt>
      <trkpt lat="47.2905" lon="4.99051">
        <ele>359.6</ele>
        <time>2017-10-31T14:15:53Z</time>
      </trkpt>
      <trkpt lat="47.29052" lon="4.99065">
        <ele>358.9</ele>
        <time>2017-10-31T14:16:02Z</time>
      </trkpt>
      <trkpt lat="47.29054" lon="4.99079">
        <ele>356.9</ele>
        <time>2017-10-31T14:16:12Z</time>
      </trkpt>
      <trkpt lat="47.29057" lon="4.99093">
        <ele>356</ele>
        <time>2017-10-31T14:16:21Z</time>
      </trkpt>
      <trkpt lat="47.29061" lon="4.99105">
        <ele>355.6</ele>
        <time>2017-10-31T14:16:28Z</time>
      </trkpt>
      <trkpt lat="47.29065" lon="4.99118">
        <ele>354.9</ele>
        <time>2017-10-31T14:16:35Z</time>
      </trkpt>
      <trkpt lat="47.29071" lon="4.99129">
        <ele>354</ele>
        <time>2017-10-31T14:16:43Z</time>
      </trkpt>
      <trkpt lat="47.29076" lon="4.99141">
        <ele>353.1</ele>
        <time>2017-10-31T14:16:50Z</time>
      </trkpt>
      <trkpt lat="47.29081" lon="4.99153">
        <ele>352.1</ele>
        <time>2017-10-31T14:16:59Z</time>
      </trkpt>
      <trkpt lat="47.29087" lon="4.99164">
        <ele>352.2</ele>
        <time>2017-10-31T14:17:07Z</time>
      </trkpt>
      <trkpt lat="47.29091" lon="4.99176">
        <ele>351.7</ele>
        <time>2017-10-31T14:17:17Z</time>
      </trkpt>
      <trkpt lat="47.29096" lon="4.99188">
        <ele>350</ele>
        <time>2017-10-31T14:17:29Z</time>
      </trkpt>
      <trkpt lat="47.29101" lon="4.992">
        <ele>348.6</ele>
        <time>2017-10-31T14:18:35Z</time>
      </trkpt>
      <trkpt lat="47.29106" lon="4.99213">
        <ele>348.4</ele>
        <time>2017-10-31T14:18:41Z</time>
      </trkpt>
      <trkpt lat="47.29108" lon="4.99227">
        <ele>348.1</ele>
        <time>2017-10-31T14:18:51Z</time>
      </trkpt>
      <trkpt lat="47.29111" lon="4.9924">
        <ele>346.6</ele>
        <time>2017-10-31T14:19:09Z</time>
      </trkpt>
      <trkpt lat="47.29121" lon="4.99238">
        <ele>346.6</ele>
        <time>2017-10-31T14:19:18Z</time>
      </trkpt>
      <trkpt lat="47.29127" lon="4.99227">
        <ele>346.4</ele>
        <time>2017-10-31T14:19:26Z</time>
      </trkpt>
      <trkpt lat="47.2913" lon="4.99212">
        <ele>347.3</ele>
        <time>2017-10-31T14:19:35Z</time>
      </trkpt>
      <trkpt lat="47.29131" lon="4.99199">
        <ele>347.5</ele>
        <time>2017-10-31T14:19:43Z</time>
      </trkpt>
      <trkpt lat="47.29134" lon="4.99184">
        <ele>347.7</ele>
        <time>2017-10-31T14:19:52Z</time>
      </trkpt>
      <trkpt lat="47.29136" lon="4.99171">
        <ele>348.4</ele>
        <time>2017-10-31T14:20:01Z</time>
      </trkpt>
      <trkpt lat="47.2914" lon="4.99158">
        <ele>348.8</ele>
        <time>2017-10-31T14:20:16Z</time>
      </trkpt>
      <trkpt lat="47.2915" lon="4.99158">
        <ele>349.3</ele>
        <time>2017-10-31T14:20:27Z</time>
      </trkpt>
      <trkpt lat="47.2916" lon="4.99159">
        <ele>349.4</ele>
        <time>2017-10-31T14:20:50Z</time>
      </trkpt>
      <trkpt lat="47.29168" lon="4.99166">
        <ele>349.6</ele>
        <time>2017-10-31T14:20:59Z</time>
      </trkpt>
      <trkpt lat="47.29177" lon="4.99174">
        <ele>349.6</ele>
        <time>2017-10-31T14:21:05Z</time>
      </trkpt>
      <trkpt lat="47.29184" lon="4.99181">
        <ele>348.7</ele>
        <time>2017-10-31T14:21:16Z</time>
      </trkpt>
      <trkpt lat="47.29192" lon="4.99191">
        <ele>347.8</ele>
        <time>2017-10-31T14:21:24Z</time>
      </trkpt>
      <trkpt lat="47.292" lon="4.99198">
        <ele>349.1</ele>
        <time>2017-10-31T14:22:29Z</time>
      </trkpt>
      <trkpt lat="47.29208" lon="4.99191">
        <ele>345.1</ele>
        <time>2017-10-31T14:27:09Z</time>
      </trkpt>
      <trkpt lat="47.29207" lon="4.99177">
        <ele>343.3</ele>
        <time>2017-10-31T14:27:53Z</time>
      </trkpt>
      <trkpt lat="47.29213" lon="4.99167">
        <ele>327.6</ele>
        <time>2017-10-31T14:29:31Z</time>
      </trkpt>
      <trkpt lat="47.29222" lon="4.99161">
        <ele>325.6</ele>
        <time>2017-10-31T14:29:42Z</time>
      </trkpt>
      <trkpt lat="47.29232" lon="4.9916">
        <ele>317.5</ele>
        <time>2017-10-31T14:29:58Z</time>
      </trkpt>
      <trkpt lat="47.29242" lon="4.99162">
        <ele>316.3</ele>
        <time>2017-10-31T14:30:01Z</time>
      </trkpt>
      <trkpt lat="47.29252" lon="4.99162">
        <ele>313.9</ele>
        <time>2017-10-31T14:30:10Z</time>
      </trkpt>
      <trkpt lat="47.29261" lon="4.9917">
        <ele>311.8</ele>
        <time>2017-10-31T14:30:37Z</time>
      </trkpt>
      <trkpt lat="47.29267" lon="4.9918">
        <ele>317</ele>
        <time>2017-10-31T14:31:00Z</time>
      </trkpt>
      <trkpt lat="47.29271" lon="4.99192">
        <ele>326.6</ele>
        <time>2017-10-31T14:31:33Z</time>
      </trkpt>
      <trkpt lat="47.29279" lon="4.992">
        <ele>331.7</ele>
        <time>2017-10-31T14:31:57Z</time>
      </trkpt>
      <trkpt lat="47.29288" lon="4.99209">
        <ele>332</ele>
        <time>2017-10-31T14:31:59Z</time>
      </trkpt>
      <trkpt lat="47.29297" lon="4.99211">
        <ele>333.5</ele>
        <time>2017-10-31T14:32:20Z</time>
      </trkpt>
      <trkpt lat="47.29304" lon="4.99201">
        <ele>337.7</ele>
        <time>2017-10-31T14:33:07Z</time>
      </trkpt>
      <trkpt lat="47.29312" lon="4.99196">
        <ele>341.5</ele>
        <time>2017-10-31T14:35:18Z</time>
      </trkpt>
      <trkpt lat="47.29322" lon="4.99193">
        <ele>343.1</ele>
        <time>2017-10-31T14:35:27Z</time>
      </trkpt>
      <trkpt lat="47.29331" lon="4.9919">
        <ele>345.5</ele>
        <time>2017-10-31T14:35:38Z</time>
      </trkpt>
      <trkpt lat="47.29339" lon="4.99183">
        <ele>347</ele>
        <time>2017-10-31T14:35:53Z</time>
      </trkpt>
      <trkpt lat="47.2935" lon="4.9918">
        <ele>349.1</ele>
        <time>2017-10-31T14:36:05Z</time>
      </trkpt>
      <trkpt lat="47.29358" lon="4.99175">
        <ele>350.9</ele>
        <time>2017-10-31T14:36:14Z</time>
      </trkpt>
      <trkpt lat="47.29368" lon="4.99178">
        <ele>352.5</ele>
        <time>2017-10-31T14:36:27Z</time>
      </trkpt>
      <trkpt lat="47.29377" lon="4.99174">
        <ele>352.8</ele>
        <time>2017-10-31T14:36:41Z</time>
      </trkpt>
      <trkpt lat="47.29384" lon="4.99166">
        <ele>351.4</ele>
        <time>2017-10-31T14:37:16Z</time>
      </trkpt>
      <trkpt lat="47.2939" lon="4.99154">
        <ele>352.3</ele>
        <time>2017-10-31T14:37:27Z</time>
      </trkpt>
      <trkpt lat="47.29396" lon="4.99143">
        <ele>354</ele>
        <time>2017-10-31T14:37:38Z</time>
      </trkpt>
      <trkpt lat="47.29404" lon="4.99137">
        <ele>356.2</ele>
        <time>2017-10-31T14:38:37Z</time>
      </trkpt>
      <trkpt lat="47.29413" lon="4.99128">
        <ele>356.5</ele>
        <time>2017-10-31T14:39:11Z</time>
      </trkpt>
      <trkpt lat="47.29421" lon="4.9912">
        <ele>357.7</ele>
        <time>2017-10-31T14:39:18Z</time>
      </trkpt>
      <trkpt lat="47.29431" lon="4.99118">
        <ele>359.3</ele>
        <time>2017-10-31T14:39:26Z</time>
      </trkpt>
      <trkpt lat="47.2944" lon="4.9912">
        <ele>360.8</ele>
        <time>2017-10-31T14:39:36Z</time>
      </trkpt>
      <trkpt lat="47.29449" lon="4.99129">
        <ele>361.8</ele>
        <time>2017-10-31T14:39:48Z</time>
      </trkpt>
      <trkpt lat="47.29459" lon="4.99131">
        <ele>362.7</ele>
        <time>2017-10-31T14:39:57Z</time>
      </trkpt>
      <trkpt lat="47.29468" lon="4.99131">
        <ele>363.7</ele>
        <time>2017-10-31T14:40:04Z</time>
      </trkpt>
      <trkpt lat="47.29478" lon="4.99131">
        <ele>364.8</ele>
        <time>2017-10-31T14:40:15Z</time>
      </trkpt>
      <trkpt lat="47.29487" lon="4.99125">
        <ele>365.3</ele>
        <time>2017-10-31T14:40:20Z</time>
      </trkpt>
      <trkpt lat="47.29497" lon="4.99126">
        <ele>366.2</ele>
        <time>2017-10-31T14:40:27Z</time>
      </trkpt>
      <trkpt lat="47.29508" lon="4.99129">
        <ele>366.3</ele>
        <time>2017-10-31T14:40:36Z</time>
      </trkpt>
      <trkpt lat="47.29516" lon="4.99136">
        <ele>366.4</ele>
        <time>2017-10-31T14:40:45Z</time>
      </trkpt>
      <trkpt lat="47.29525" lon="4.99141">
        <ele>364.7</ele>
        <time>2017-10-31T14:41:00Z</time>
      </trkpt>
      <trkpt lat="47.29533" lon="4.99149">
        <ele>363.9</ele>
        <time>2017-10-31T14:41:11Z</time>
      </trkpt>
      <trkpt lat="47.2954" lon="4.99158">
        <ele>363.8</ele>
        <time>2017-10-31T14:41:19Z</time>
      </trkpt>
      <trkpt lat="47.29547" lon="4.9917">
        <ele>365</ele>
        <time>2017-10-31T14:41:29Z</time>
      </trkpt>
      <trkpt lat="47.29557" lon="4.99179">
        <ele>367</ele>
        <time>2017-10-31T14:41:44Z</time>
      </trkpt>
      <trkpt lat="47.29566" lon="4.99188">
        <ele>368.8</ele>
        <time>2017-10-31T14:41:57Z</time>
      </trkpt>
      <trkpt lat="47.29574" lon="4.99197">
        <ele>369.1</ele>
        <time>2017-10-31T14:42:06Z</time>
      </trkpt>
      <trkpt lat="47.29584" lon="4.99201">
        <ele>369.5</ele>
        <time>2017-10-31T14:42:12Z</time>
      </trkpt>
      <trkpt lat="47.29592" lon="4.99209">
        <ele>370.3</ele>
        <time>2017-10-31T14:42:25Z</time>
      </trkpt>
      <trkpt lat="47.29605" lon="4.99214">
        <ele>370.4</ele>
        <time>2017-10-31T14:42:28Z</time>
      </trkpt>
      <trkpt lat="47.29613" lon="4.9922">
        <ele>370.7</ele>
        <time>2017-10-31T14:42:31Z</time>
      </trkpt>
      <trkpt lat="47.29628" lon="4.99225">
        <ele>371.4</ele>
        <time>2017-10-31T14:42:39Z</time>
      </trkpt>
      <trkpt lat="47.29637" lon="4.99229">
        <ele>371.6</ele>
        <time>2017-10-31T14:42:41Z</time>
      </trkpt>
      <trkpt lat="47.29645" lon="4.99237">
        <ele>370.9</ele>
        <time>2017-10-31T14:42:53Z</time>
      </trkpt>
      <trkpt lat="47.29654" lon="4.99246">
        <ele>368.8</ele>
        <time>2017-10-31T14:43:06Z</time>
      </trkpt>
      <trkpt lat="47.29663" lon="4.99251">
        <ele>368.3</ele>
        <time>2017-10-31T14:43:11Z</time>
      </trkpt>
      <trkpt lat="47.29672" lon="4.99248">
        <ele>370.7</ele>
        <time>2017-10-31T14:43:42Z</time>
      </trkpt>
      <trkpt lat="47.29681" lon="4.99251">
        <ele>371.1</ele>
        <time>2017-10-31T14:43:53Z</time>
      </trkpt>
      <trkpt lat="47.29686" lon="4.99263">
        <ele>371.6</ele>
        <time>2017-10-31T14:46:02Z</time>
      </trkpt>
      <trkpt lat="47.29695" lon="4.99272">
        <ele>373.2</ele>
        <time>2017-10-31T14:46:26Z</time>
      </trkpt>
      <trkpt lat="47.29704" lon="4.9928">
        <ele>373.8</ele>
        <time>2017-10-31T14:46:35Z</time>
      </trkpt>
      <trkpt lat="47.29711" lon="4.99288">
        <ele>373.5</ele>
        <time>2017-10-31T14:46:47Z</time>
      </trkpt>
      <trkpt lat="47.29719" lon="4.99295">
        <ele>372.2</ele>
        <time>2017-10-31T14:47:07Z</time>
      </trkpt>
      <trkpt lat="47.29728" lon="4.99302">
        <ele>372.4</ele>
        <time>2017-10-31T14:47:20Z</time>
      </trkpt>
      <trkpt lat="47.2974" lon="4.99309">
        <ele>373</ele>
        <time>2017-10-31T14:47:30Z</time>
      </trkpt>
      <trkpt lat="47.29749" lon="4.99315">
        <ele>373.6</ele>
        <time>2017-10-31T14:47:33Z</time>
      </trkpt>
      <trkpt lat="47.29759" lon="4.9932">
        <ele>373.8</ele>
        <time>2017-10-31T14:47:41Z</time>
      </trkpt>
      <trkpt lat="47.29768" lon="4.99326">
        <ele>374.4</ele>
        <time>2017-10-31T14:47:49Z</time>
      </trkpt>
      <trkpt lat="47.2978" lon="4.9933">
        <ele>374.7</ele>
        <time>2017-10-31T14:47:57Z</time>
      </trkpt>
      <trkpt lat="47.29793" lon="4.99344">
        <ele>375</ele>
        <time>2017-10-31T14:48:02Z</time>
      </trkpt>
      <trkpt lat="47.29804" lon="4.9935">
        <ele>375.2</ele>
        <time>2017-10-31T14:48:04Z</time>
      </trkpt>
      <trkpt lat="47.29813" lon="4.99351">
        <ele>375.2</ele>
        <time>2017-10-31T14:48:15Z</time>
      </trkpt>
      <trkpt lat="47.29825" lon="4.9935">
        <ele>374.3</ele>
        <time>2017-10-31T14:48:20Z</time>
      </trkpt>
      <trkpt lat="47.29835" lon="4.99344">
        <ele>372</ele>
        <time>2017-10-31T14:48:32Z</time>
      </trkpt>
      <trkpt lat="47.29844" lon="4.99334">
        <ele>370.6</ele>
        <time>2017-10-31T14:48:40Z</time>
      </trkpt>
      <trkpt lat="47.29853" lon="4.99328">
        <ele>368.8</ele>
        <time>2017-10-31T14:48:49Z</time>
      </trkpt>
      <trkpt lat="47.29862" lon="4.99321">
        <ele>368.7</ele>
        <time>2017-10-31T14:48:56Z</time>
      </trkpt>
      <trkpt lat="47.29868" lon="4.9931">
        <ele>369</ele>
        <time>2017-10-31T14:49:05Z</time>
      </trkpt>
      <trkpt lat="47.29877" lon="4.99307">
        <ele>368.5</ele>
        <time>2017-10-31T14:49:26Z</time>
      </trkpt>
      <trkpt lat="47.29887" lon="4.99307">
        <ele>368.5</ele>
        <time>2017-10-31T14:49:33Z</time>
      </trkpt>
      <trkpt lat="47.29896" lon="4.99304">
        <ele>368.4</ele>
        <time>2017-10-31T14:49:38Z</time>
      </trkpt>
      <trkpt lat="47.29905" lon="4.993">
        <ele>368.4</ele>
        <time>2017-10-31T14:49:45Z</time>
      </trkpt>
      <trkpt lat="47.29912" lon="4.99291">
        <ele>368.6</ele>
        <time>2017-10-31T14:49:49Z</time>
      </trkpt>
      <trkpt lat="47.29922" lon="4.99287">
        <ele>369.4</ele>
        <time>2017-10-31T14:49:57Z</time>
      </trkpt>
      <trkpt lat="47.2993" lon="4.9928">
        <ele>370.9</ele>
        <time>2017-10-31T14:50:15Z</time>
      </trkpt>
      <trkpt lat="47.29937" lon="4.9927">
        <ele>371.1</ele>
        <time>2017-10-31T14:50:41Z</time>
      </trkpt>
      <trkpt lat="47.29939" lon="4.99253">
        <ele>371.3</ele>
        <time>2017-10-31T14:50:48Z</time>
      </trkpt>
      <trkpt lat="47.29941" lon="4.9924">
        <ele>371.1</ele>
        <time>2017-10-31T14:50:59Z</time>
      </trkpt>
      <trkpt lat="47.29945" lon="4.99227">
        <ele>370.6</ele>
        <time>2017-10-31T14:51:11Z</time>
      </trkpt>
      <trkpt lat="47.2995" lon="4.99215">
        <ele>370.2</ele>
        <time>2017-10-31T14:51:24Z</time>
      </trkpt>
      <trkpt lat="47.29949" lon="4.99201">
        <ele>370.9</ele>
        <time>2017-10-31T14:51:36Z</time>
      </trkpt>
      <trkpt lat="47.29955" lon="4.9919">
        <ele>371</ele>
        <time>2017-10-31T14:51:57Z</time>
      </trkpt>
      <trkpt lat="47.29962" lon="4.99182">
        <ele>371.8</ele>
        <time>2017-10-31T14:52:04Z</time>
      </trkpt>
      <trkpt lat="47.29966" lon="4.9917">
        <ele>372.4</ele>
        <time>2017-10-31T14:52:09Z</time>
      </trkpt>
      <trkpt lat="47.29973" lon="4.99159">
        <ele>373</ele>
        <time>2017-10-31T14:52:17Z</time>
      </trkpt>
      <trkpt lat="47.2998" lon="4.99148">
        <ele>374.1</ele>
        <time>2017-10-31T14:52:28Z</time>
      </trkpt>
      <trkpt lat="47.29987" lon="4.99137">
        <ele>374.7</ele>
        <time>2017-10-31T14:52:36Z</time>
      </trkpt>
      <trkpt lat="47.29984" lon="4.99123">
        <ele>375.2</ele>
        <time>2017-10-31T14:52:52Z</time>
      </trkpt>
      <trkpt lat="47.29978" lon="4.99113">
        <ele>374.6</ele>
        <time>2017-10-31T14:53:07Z</time>
      </trkpt>
      <trkpt lat="47.29986" lon="4.99106">
        <ele>374</ele>
        <time>2017-10-31T14:53:17Z</time>
      </trkpt>
      <trkpt lat="47.29993" lon="4.99092">
        <ele>374</ele>
        <time>2017-10-31T14:53:31Z</time>
      </trkpt>
      <trkpt lat="47.29996" lon="4.99078">
        <ele>374.5</ele>
        <time>2017-10-31T14:53:37Z</time>
      </trkpt>
      <trkpt lat="47.30004" lon="4.99071">
        <ele>375.1</ele>
        <time>2017-10-31T14:53:45Z</time>
      </trkpt>
      <trkpt lat="47.30011" lon="4.99061">
        <ele>375.7</ele>
        <time>2017-10-31T14:53:55Z</time>
      </trkpt>
      <trkpt lat="47.30018" lon="4.99054">
        <ele>376.6</ele>
        <time>2017-10-31T14:54:16Z</time>
      </trkpt>
      <trkpt lat="47.30022" lon="4.99041">
        <ele>369.3</ele>
        <time>2017-10-31T15:05:04Z</time>
      </trkpt>
      <trkpt lat="47.30022" lon="4.99027">
        <ele>370.6</ele>
        <time>2017-10-31T15:05:10Z</time>
      </trkpt>
      <trkpt lat="47.30021" lon="4.99012">
        <ele>372.5</ele>
        <time>2017-10-31T15:05:20Z</time>
      </trkpt>
      <trkpt lat="47.30023" lon="4.98999">
        <ele>374.3</ele>
        <time>2017-10-31T15:05:31Z</time>
      </trkpt>
      <trkpt lat="47.30031" lon="4.98995">
        <ele>375.2</ele>
        <time>2017-10-31T15:05:42Z</time>
      </trkpt>
      <trkpt lat="47.30041" lon="4.98998">
        <ele>375.3</ele>
        <time>2017-10-31T15:05:49Z</time>
      </trkpt>
      <trkpt lat="47.30051" lon="4.99">
        <ele>375.2</ele>
        <time>2017-10-31T15:05:57Z</time>
      </trkpt>
      <trkpt lat="47.30061" lon="4.99006">
        <ele>375.4</ele>
        <time>2017-10-31T15:06:06Z</time>
      </trkpt>
      <trkpt lat="47.30071" lon="4.99007">
        <ele>375.1</ele>
        <time>2017-10-31T15:06:20Z</time>
      </trkpt>
      <trkpt lat="47.30077" lon="4.98996">
        <ele>375</ele>
        <time>2017-10-31T15:06:32Z</time>
      </trkpt>
      <trkpt lat="47.30076" lon="4.98982">
        <ele>375.1</ele>
        <time>2017-10-31T15:06:40Z</time>
      </trkpt>
      <trkpt lat="47.30074" lon="4.98968">
        <ele>375.4</ele>
        <time>2017-10-31T15:06:48Z</time>
      </trkpt>
      <trkpt lat="47.3007" lon="4.98955">
        <ele>375.2</ele>
        <time>2017-10-31T15:06:55Z</time>
      </trkpt>
      <trkpt lat="47.3007" lon="4.98941">
        <ele>375.4</ele>
        <time>2017-10-31T15:07:03Z</time>
      </trkpt>
      <trkpt lat="47.30069" lon="4.98926">
        <ele>375.3</ele>
        <time>2017-10-31T15:07:15Z</time>
      </trkpt>
      <trkpt lat="47.30066" lon="4.98912">
        <ele>375.5</ele>
        <time>2017-10-31T15:07:22Z</time>
      </trkpt>
      <trkpt lat="47.30063" lon="4.98897">
        <ele>375.6</ele>
        <time>2017-10-31T15:07:31Z</time>
      </trkpt>
      <trkpt lat="47.30062" lon="4.98884">
        <ele>376</ele>
        <time>2017-10-31T15:07:39Z</time>
      </trkpt>
      <trkpt lat="47.30061" lon="4.9887">
        <ele>376.2</ele>
        <time>2017-10-31T15:07:48Z</time>
      </trkpt>
      <trkpt lat="47.30061" lon="4.98856">
        <ele>376.3</ele>
        <time>2017-10-31T15:07:55Z</time>
      </trkpt>
      <trkpt lat="47.30062" lon="4.98842">
        <ele>376.6</ele>
        <time>2017-10-31T15:08:04Z</time>
      </trkpt>
      <trkpt lat="47.30061" lon="4.98827">
        <ele>377</ele>
        <time>2017-10-31T15:08:13Z</time>
      </trkpt>
      <trkpt lat="47.30059" lon="4.98812">
        <ele>377</ele>
        <time>2017-10-31T15:08:20Z</time>
      </trkpt>
      <trkpt lat="47.30055" lon="4.98799">
        <ele>377.1</ele>
        <time>2017-10-31T15:08:28Z</time>
      </trkpt>
      <trkpt lat="47.30053" lon="4.98785">
        <ele>376.9</ele>
        <time>2017-10-31T15:08:40Z</time>
      </trkpt>
      <trkpt lat="47.3005" lon="4.98772">
        <ele>377.2</ele>
        <time>2017-10-31T15:08:52Z</time>
      </trkpt>
      <trkpt lat="47.30048" lon="4.98758">
        <ele>377.8</ele>
        <time>2017-10-31T15:09:03Z</time>
      </trkpt>
      <trkpt lat="47.30045" lon="4.98745">
        <ele>377.8</ele>
        <time>2017-10-31T15:09:07Z</time>
      </trkpt>
      <trkpt lat="47.30046" lon="4.98728">
        <ele>378.5</ele>
        <time>2017-10-31T15:09:16Z</time>
      </trkpt>
      <trkpt lat="47.30048" lon="4.98714">
        <ele>379.2</ele>
        <time>2017-10-31T15:09:23Z</time>
      </trkpt>
      <trkpt lat="47.30052" lon="4.98702">
        <ele>380.6</ele>
        <time>2017-10-31T15:09:30Z</time>
      </trkpt>
      <trkpt lat="47.30061" lon="4.98694">
        <ele>382.3</ele>
        <time>2017-10-31T15:09:40Z</time>
      </trkpt>
      <trkpt lat="47.30068" lon="4.98683">
        <ele>383.2</ele>
        <time>2017-10-31T15:09:47Z</time>
      </trkpt>
      <trkpt lat="47.30073" lon="4.98671">
        <ele>383.9</ele>
        <time>2017-10-31T15:09:55Z</time>
      </trkpt>
      <trkpt lat="47.3008" lon="4.9866">
        <ele>385.6</ele>
        <time>2017-10-31T15:10:05Z</time>
      </trkpt>
      <trkpt lat="47.30086" lon="4.98648">
        <ele>385.7</ele>
        <time>2017-10-31T15:10:13Z</time>
      </trkpt>
      <trkpt lat="47.30093" lon="4.98639">
        <ele>385.9</ele>
        <time>2017-10-31T15:10:22Z</time>
      </trkpt>
      <trkpt lat="47.301" lon="4.98627">
        <ele>386.1</ele>
        <time>2017-10-31T15:10:31Z</time>
      </trkpt>
      <trkpt lat="47.30106" lon="4.98617">
        <ele>385.9</ele>
        <time>2017-10-31T15:10:39Z</time>
      </trkpt>
      <trkpt lat="47.30112" lon="4.98606">
        <ele>385.7</ele>
        <time>2017-10-31T15:10:47Z</time>
      </trkpt>
      <trkpt lat="47.30119" lon="4.98596">
        <ele>385.3</ele>
        <time>2017-10-31T15:10:55Z</time>
      </trkpt>
      <trkpt lat="47.30125" lon="4.98586">
        <ele>384.7</ele>
        <time>2017-10-31T15:11:07Z</time>
      </trkpt>
      <trkpt lat="47.3013" lon="4.98576">
        <ele>384.3</ele>
        <time>2017-10-31T15:11:15Z</time>
      </trkpt>
      <trkpt lat="47.30134" lon="4.98562">
        <ele>384</ele>
        <time>2017-10-31T15:11:24Z</time>
      </trkpt>
      <trkpt lat="47.30136" lon="4.98549">
        <ele>383.6</ele>
        <time>2017-10-31T15:11:33Z</time>
      </trkpt>
      <trkpt lat="47.3014" lon="4.98537">
        <ele>383</ele>
        <time>2017-10-31T15:11:41Z</time>
      </trkpt>
      <trkpt lat="47.3014" lon="4.98523">
        <ele>382.2</ele>
        <time>2017-10-31T15:11:49Z</time>
      </trkpt>
      <trkpt lat="47.3014" lon="4.98509">
        <ele>381.9</ele>
        <time>2017-10-31T15:11:57Z</time>
      </trkpt>
      <trkpt lat="47.30144" lon="4.98496">
        <ele>381.9</ele>
        <time>2017-10-31T15:12:05Z</time>
      </trkpt>
      <trkpt lat="47.30147" lon="4.98483">
        <ele>381.5</ele>
        <time>2017-10-31T15:12:13Z</time>
      </trkpt>
      <trkpt lat="47.30149" lon="4.98469">
        <ele>380.5</ele>
        <time>2017-10-31T15:12:21Z</time>
      </trkpt>
      <trkpt lat="47.30152" lon="4.98454">
        <ele>379.6</ele>
        <time>2017-10-31T15:12:32Z</time>
      </trkpt>
      <trkpt lat="47.30152" lon="4.9844">
        <ele>379.4</ele>
        <time>2017-10-31T15:12:39Z</time>
      </trkpt>
      <trkpt lat="47.30149" lon="4.98424">
        <ele>379.5</ele>
        <time>2017-10-31T15:12:49Z</time>
      </trkpt>
      <trkpt lat="47.30145" lon="4.98411">
        <ele>379</ele>
        <time>2017-10-31T15:12:58Z</time>
      </trkpt>
      <trkpt lat="47.3014" lon="4.98398">
        <ele>378.6</ele>
        <time>2017-10-31T15:13:04Z</time>
      </trkpt>
      <trkpt lat="47.30136" lon="4.98384">
        <ele>378.3</ele>
        <time>2017-10-31T15:13:59Z</time>
      </trkpt>
      <trkpt lat="47.3014" lon="4.98372">
        <ele>380.2</ele>
        <time>2017-10-31T15:14:33Z</time>
      </trkpt>
      <trkpt lat="47.30142" lon="4.98357">
        <ele>380.7</ele>
        <time>2017-10-31T15:14:41Z</time>
      </trkpt>
      <trkpt lat="47.30145" lon="4.98342">
        <ele>381.2</ele>
        <time>2017-10-31T15:14:48Z</time>
      </trkpt>
      <trkpt lat="47.30146" lon="4.98328">
        <ele>381.5</ele>
        <time>2017-10-31T15:14:58Z</time>
      </trkpt>
      <trkpt lat="47.30151" lon="4.98316">
        <ele>380.9</ele>
        <time>2017-10-31T15:15:06Z</time>
      </trkpt>
      <trkpt lat="47.30153" lon="4.98302">
        <ele>380.9</ele>
        <time>2017-10-31T15:15:15Z</time>
      </trkpt>
      <trkpt lat="47.30157" lon="4.9829">
        <ele>381.3</ele>
        <time>2017-10-31T15:15:24Z</time>
      </trkpt>
      <trkpt lat="47.30162" lon="4.98278">
        <ele>380.7</ele>
        <time>2017-10-31T15:15:39Z</time>
      </trkpt>
      <trkpt lat="47.30166" lon="4.98265">
        <ele>380.5</ele>
        <time>2017-10-31T15:15:47Z</time>
      </trkpt>
      <trkpt lat="47.30169" lon="4.98252">
        <ele>380.8</ele>
        <time>2017-10-31T15:15:55Z</time>
      </trkpt>
      <trkpt lat="47.30172" lon="4.98238">
        <ele>380.1</ele>
        <time>2017-10-31T15:16:08Z</time>
      </trkpt>
      <trkpt lat="47.30172" lon="4.98222">
        <ele>379.4</ele>
        <time>2017-10-31T15:16:19Z</time>
      </trkpt>
      <trkpt lat="47.30173" lon="4.98207">
        <ele>378.2</ele>
        <time>2017-10-31T15:16:29Z</time>
      </trkpt>
      <trkpt lat="47.30173" lon="4.98191">
        <ele>377.6</ele>
        <time>2017-10-31T15:16:36Z</time>
      </trkpt>
      <trkpt lat="47.30182" lon="4.98186">
        <ele>376.9</ele>
        <time>2017-10-31T15:16:55Z</time>
      </trkpt>
      <trkpt lat="47.30192" lon="4.98186">
        <ele>376.1</ele>
        <time>2017-10-31T15:17:06Z</time>
      </trkpt>
      <trkpt lat="47.30204" lon="4.98185">
        <ele>375.4</ele>
        <time>2017-10-31T15:17:23Z</time>
      </trkpt>
      <trkpt lat="47.30215" lon="4.98188">
        <ele>374.3</ele>
        <time>2017-10-31T15:17:33Z</time>
      </trkpt>
      <trkpt lat="47.30224" lon="4.98191">
        <ele>373.8</ele>
        <time>2017-10-31T15:17:37Z</time>
      </trkpt>
      <trkpt lat="47.30234" lon="4.9819">
        <ele>372.6</ele>
        <time>2017-10-31T15:17:44Z</time>
      </trkpt>
      <trkpt lat="47.30244" lon="4.98187">
        <ele>371.8</ele>
        <time>2017-10-31T15:17:49Z</time>
      </trkpt>
      <trkpt lat="47.30253" lon="4.98179">
        <ele>371.4</ele>
        <time>2017-10-31T15:17:56Z</time>
      </trkpt>
      <trkpt lat="47.3026" lon="4.98168">
        <ele>371.6</ele>
        <time>2017-10-31T15:18:02Z</time>
      </trkpt>
      <trkpt lat="47.30267" lon="4.9816">
        <ele>372.6</ele>
        <time>2017-10-31T15:18:10Z</time>
      </trkpt>
      <trkpt lat="47.30273" lon="4.98148">
        <ele>373.4</ele>
        <time>2017-10-31T15:18:18Z</time>
      </trkpt>
      <trkpt lat="47.30276" lon="4.98134">
        <ele>373.2</ele>
        <time>2017-10-31T15:18:28Z</time>
      </trkpt>
      <trkpt lat="47.30277" lon="4.98121">
        <ele>372.6</ele>
        <time>2017-10-31T15:18:37Z</time>
      </trkpt>
      <trkpt lat="47.30279" lon="4.98107">
        <ele>372.5</ele>
        <time>2017-10-31T15:18:48Z</time>
      </trkpt>
      <trkpt lat="47.30279" lon="4.98095">
        <ele>367.1</ele>
        <time>2017-10-31T15:20:14Z</time>
      </trkpt>
    </trkseg>
  </trk>
</gpx>